createdAt,value
2022-12-03T00:00:12.519Z,68.05
2022-12-03T00:02:41.725Z,67.80
2022-12-03T00:05:10.596Z,67.20
2022-12-03T00:07:38.363Z,68.25
2022-12-03T00:10:07.046Z,67.87
2022-12-03T00:12:34.760Z,69.00
2022-12-03T00:15:02.438Z,68.54
2022-12-03T00:17:31.205Z,67.52
2022-12-03T00:19:58.718Z,67.34
2022-12-03T00:22:26.154Z,67.46
2022-12-03T00:24:54.276Z,67.88
2022-12-03T00:27:22.160Z,68.59
2022-12-03T00:29:49.837Z,68.11
2022-12-03T00:32:17.643Z,68.73
2022-12-03T00:34:45.557Z,68.04
2022-12-03T00:37:13.187Z,68.33
2022-12-03T00:39:41.270Z,67.60
2022-12-03T00:42:08.892Z,69.40
2022-12-03T00:44:36.482Z,68.20
2022-12-03T00:47:04.607Z,67.74
2022-12-03T00:49:32.419Z,67.66
2022-12-03T00:51:59.970Z,68.49
2022-12-03T00:54:31.914Z,68.15
2022-12-03T00:57:02.037Z,67.36
2022-12-03T00:59:29.811Z,67.06
2022-12-03T01:01:58.088Z,66.69
2022-12-03T01:04:25.743Z,67.38
2022-12-03T01:06:53.518Z,67.63
2022-12-03T01:09:20.956Z,67.57
2022-12-03T01:11:48.675Z,67.57
2022-12-03T01:14:18.617Z,68.64
2022-12-03T01:16:48.034Z,68.76
2022-12-03T01:19:16.482Z,69.93
2022-12-03T01:21:49.569Z,68.24
2022-12-03T01:24:18.856Z,68.87
2022-12-03T01:26:46.605Z,68.68
2022-12-03T01:29:14.308Z,68.78
2022-12-03T01:32:00.820Z,68.90
2022-12-03T01:34:28.462Z,68.45
2022-12-03T01:36:56.195Z,68.19
2022-12-03T01:39:23.802Z,68.31
2022-12-03T01:41:52.510Z,67.63
2022-12-03T01:44:25.990Z,69.45
2022-12-03T01:46:54.846Z,67.61
2022-12-03T01:49:26.415Z,67.16
2022-12-03T01:51:54.928Z,67.36
2022-12-03T01:54:27.914Z,67.87
2022-12-03T01:56:55.590Z,67.89
2022-12-03T01:59:32.682Z,67.59
2022-12-03T02:02:08.731Z,68.10
2022-12-03T02:04:36.808Z,66.78
2022-12-03T02:07:24.376Z,67.18
2022-12-03T02:09:53.770Z,67.37
2022-12-03T02:12:28.524Z,66.88
2022-12-03T02:14:56.369Z,67.98
2022-12-03T02:17:24.589Z,67.42
2022-12-03T02:19:52.474Z,67.12
2022-12-03T02:22:31.298Z,67.55
2022-12-03T02:24:59.505Z,66.87
2022-12-03T02:27:29.918Z,65.79
2022-12-03T02:29:57.488Z,67.13
2022-12-03T02:32:25.563Z,68.13
2022-12-03T02:34:53.433Z,68.22
2022-12-03T02:37:24.589Z,67.83
2022-12-03T02:39:55.164Z,67.15
2022-12-03T02:42:35.319Z,66.89
2022-12-03T02:45:12.914Z,67.37
2022-12-03T02:47:46.348Z,68.35
2022-12-03T02:50:15.927Z,67.89
2022-12-03T02:52:44.530Z,67.90
2022-12-03T02:55:13.033Z,66.64
2022-12-03T02:57:41.039Z,67.69
2022-12-03T03:00:10.173Z,66.92
2022-12-03T03:02:39.002Z,66.97
2022-12-03T03:05:08.747Z,65.86
2022-12-03T03:07:36.682Z,65.78
2022-12-03T03:10:05.480Z,66.87
2022-12-03T03:12:37.722Z,66.89
2022-12-03T03:15:07.993Z,68.21
2022-12-03T03:17:35.824Z,67.64
2022-12-03T03:20:05.433Z,67.25
2022-12-03T03:22:39.295Z,67.01
2022-12-03T03:25:12.933Z,68.19
2022-12-03T03:27:41.149Z,67.59
2022-12-03T03:30:11.157Z,66.56
2022-12-03T03:32:39.045Z,67.05
2022-12-03T03:35:10.090Z,67.00
2022-12-03T03:37:38.474Z,69.00
2022-12-03T03:40:06.850Z,66.74
2022-12-03T03:42:35.041Z,67.62
2022-12-03T03:45:02.731Z,68.07
2022-12-03T03:47:30.402Z,66.52
2022-12-03T03:49:57.868Z,66.20
2022-12-03T03:52:26.013Z,67.70
2022-12-03T03:54:53.574Z,67.31
2022-12-03T03:57:21.219Z,68.08
2022-12-03T03:59:51.063Z,67.94
2022-12-03T04:02:23.289Z,68.86
2022-12-03T04:04:51.932Z,68.38
2022-12-03T04:07:20.184Z,67.57
2022-12-03T04:09:47.791Z,68.10
2022-12-03T04:12:34.393Z,67.56
2022-12-03T04:15:01.963Z,66.49
2022-12-03T04:17:29.797Z,67.81
2022-12-03T04:19:57.289Z,67.75
2022-12-03T04:22:39.982Z,66.49
2022-12-03T04:25:28.365Z,68.01
2022-12-03T04:28:14.645Z,66.86
2022-12-03T04:30:42.875Z,66.92
2022-12-03T04:33:29.241Z,67.71
2022-12-03T04:35:57.217Z,67.81
2022-12-03T04:38:24.820Z,67.70
2022-12-03T04:41:01.498Z,68.69
2022-12-03T04:43:30.483Z,67.29
2022-12-03T04:45:58.157Z,67.65
2022-12-03T04:48:25.886Z,67.31
2022-12-03T04:50:53.706Z,66.55
2022-12-03T04:53:21.309Z,67.13
2022-12-03T04:55:48.779Z,66.64
2022-12-03T04:58:17.639Z,68.54
2022-12-03T05:00:45.049Z,67.88
2022-12-03T05:03:12.902Z,68.41
2022-12-03T05:05:40.673Z,67.79
2022-12-03T05:08:08.370Z,68.90
2022-12-03T05:10:35.835Z,69.70
2022-12-03T05:13:03.686Z,69.00
2022-12-03T05:15:31.267Z,69.18
2022-12-03T05:17:58.817Z,68.73
2022-12-03T05:20:41.840Z,69.17
2022-12-03T05:23:13.677Z,68.35
2022-12-03T05:25:41.417Z,69.12
2022-12-03T05:28:09.122Z,69.97
2022-12-03T05:30:36.745Z,69.15
2022-12-03T05:33:04.729Z,69.68
2022-12-03T05:35:32.301Z,69.17
2022-12-03T05:37:59.789Z,69.27
2022-12-03T05:40:27.579Z,69.16
2022-12-03T05:42:55.091Z,68.80
2022-12-03T05:45:27.213Z,67.98
2022-12-03T05:47:56.918Z,69.04
2022-12-03T05:50:27.342Z,68.91
2022-12-03T05:52:55.628Z,69.71
2022-12-03T05:55:23.699Z,68.02
2022-12-03T05:57:51.426Z,68.86
2022-12-03T06:00:29.366Z,67.99
2022-12-03T06:02:57.566Z,69.09
2022-12-03T06:05:25.754Z,69.00
2022-12-03T06:07:53.623Z,68.13
2022-12-03T06:10:24.092Z,67.34
2022-12-03T06:12:52.300Z,66.94
2022-12-03T06:15:20.144Z,68.07
2022-12-03T06:17:47.915Z,68.19
2022-12-03T06:20:17.847Z,68.04
2022-12-03T06:22:45.511Z,66.87
2022-12-03T06:25:16.643Z,67.55
2022-12-03T06:27:44.710Z,69.50
2022-12-03T06:30:13.842Z,68.82
2022-12-03T06:32:41.634Z,68.07
2022-12-03T06:35:09.747Z,67.96
2022-12-03T06:37:37.336Z,67.75
2022-12-03T06:40:05.921Z,67.89
2022-12-03T06:42:33.447Z,66.95
2022-12-03T06:45:00.875Z,67.21
2022-12-03T06:47:30.849Z,66.51
2022-12-03T06:49:58.492Z,68.45
2022-12-03T06:52:26.085Z,68.14
2022-12-03T06:54:54.284Z,66.79
2022-12-03T06:57:22.047Z,68.00
2022-12-03T06:59:49.537Z,68.65
2022-12-03T07:02:17.539Z,68.38
2022-12-03T07:04:46.522Z,67.97
2022-12-03T07:07:18.198Z,67.85
2022-12-03T07:09:45.927Z,67.90
2022-12-03T07:12:13.585Z,67.21
2022-12-03T07:14:41.583Z,66.43
2022-12-03T07:17:09.336Z,67.15
2022-12-03T07:19:36.883Z,67.57
2022-12-03T07:22:04.683Z,67.77
2022-12-03T07:24:32.765Z,67.38
2022-12-03T07:27:00.218Z,67.27
2022-12-03T07:29:27.787Z,67.29
2022-12-03T07:31:55.720Z,67.24
2022-12-03T07:34:23.387Z,67.20
2022-12-03T07:36:50.963Z,68.02
2022-12-03T07:39:19.029Z,67.53
2022-12-03T07:41:47.026Z,66.59
2022-12-03T07:44:15.058Z,66.41
2022-12-03T07:46:43.331Z,66.61
2022-12-03T07:49:12.511Z,67.50
2022-12-03T07:51:40.608Z,66.18
2022-12-03T07:54:11.386Z,66.94
2022-12-03T07:56:39.005Z,66.78
2022-12-03T07:59:07.117Z,66.98
2022-12-03T08:01:35.060Z,65.69
2022-12-03T08:04:03.062Z,66.82
2022-12-03T08:06:30.626Z,67.08
2022-12-03T08:08:58.279Z,67.52
2022-12-03T08:11:29.105Z,67.66
2022-12-03T08:13:57.642Z,67.04
2022-12-03T08:16:25.371Z,67.44
2022-12-03T08:18:54.625Z,68.07
2022-12-03T08:21:23.269Z,67.42
2022-12-03T08:23:50.756Z,67.42
2022-12-03T08:26:26.567Z,68.09
2022-12-03T08:28:54.765Z,65.42
2022-12-03T08:31:32.386Z,64.97
2022-12-03T08:34:27.870Z,67.36
2022-12-03T08:37:02.394Z,66.81
2022-12-03T08:39:35.806Z,65.86
2022-12-03T08:42:32.281Z,65.76
2022-12-03T08:45:40.186Z,67.97
2022-12-03T08:48:37.705Z,68.93
2022-12-03T08:51:11.712Z,68.47
2022-12-03T08:53:50.873Z,67.97
2022-12-03T08:56:24.372Z,67.58
2022-12-03T08:59:27.841Z,67.05
2022-12-03T09:01:56.753Z,67.51
2022-12-03T09:04:44.376Z,66.80
2022-12-03T09:07:12.050Z,66.95
2022-12-03T09:09:40.321Z,68.09
2022-12-03T09:12:07.984Z,67.20
2022-12-03T09:14:36.075Z,67.48
2022-12-03T09:17:04.105Z,68.59
2022-12-03T09:19:31.558Z,68.12
2022-12-03T09:21:59.095Z,67.65
2022-12-03T09:24:26.898Z,67.75
2022-12-03T09:26:54.402Z,67.03
2022-12-03T09:29:22.013Z,66.67
2022-12-03T09:31:49.818Z,67.65
2022-12-03T09:34:17.239Z,67.89
2022-12-03T09:36:44.775Z,66.69
2022-12-03T09:39:12.564Z,67.62
2022-12-03T09:41:40.292Z,66.87
2022-12-03T09:44:12.276Z,66.60
2022-12-03T09:46:45.602Z,66.89
2022-12-03T09:49:15.996Z,64.83
2022-12-03T09:51:44.640Z,65.37
2022-12-03T09:54:24.908Z,66.00
2022-12-03T09:56:54.273Z,65.83
2022-12-03T09:59:23.938Z,66.29
2022-12-03T10:01:55.395Z,65.60
2022-12-03T10:04:23.522Z,64.71
2022-12-03T10:06:51.397Z,64.73
2022-12-03T10:09:24.072Z,65.79
2022-12-03T10:11:58.096Z,64.96
2022-12-03T10:14:25.742Z,65.22
2022-12-03T10:16:53.862Z,64.29
2022-12-03T10:19:29.423Z,63.72
2022-12-03T10:21:57.478Z,67.22
2022-12-03T10:24:28.915Z,64.68
2022-12-03T10:26:59.143Z,63.03
2022-12-03T10:29:33.597Z,63.16
2022-12-03T10:32:10.238Z,64.68
2022-12-03T10:34:40.100Z,65.00
2022-12-03T10:37:21.894Z,65.55
2022-12-03T10:39:56.185Z,64.89
2022-12-03T10:42:30.194Z,65.44
2022-12-03T10:45:16.660Z,63.59
2022-12-03T10:48:04.008Z,63.71
2022-12-03T10:50:32.303Z,63.18
2022-12-03T10:53:00.143Z,63.48
2022-12-03T10:55:29.972Z,62.63
2022-12-03T10:58:05.019Z,62.94
2022-12-03T11:00:32.794Z,63.18
2022-12-03T11:03:00.311Z,62.47
2022-12-03T11:05:28.580Z,62.40
2022-12-03T11:07:56.815Z,64.24
2022-12-03T11:10:24.602Z,60.29
2022-12-03T11:13:26.214Z,60.73
2022-12-03T11:15:54.544Z,61.42
2022-12-03T11:18:36.923Z,60.96
2022-12-03T11:21:10.153Z,59.71
2022-12-03T11:23:47.007Z,59.41
2022-12-03T11:26:18.798Z,57.70
2022-12-03T11:28:46.915Z,57.67
2022-12-03T11:31:37.443Z,57.32
2022-12-03T11:34:23.405Z,56.72
2022-12-03T11:37:17.579Z,57.18
2022-12-03T11:39:45.334Z,56.42
2022-12-03T11:42:25.991Z,55.84
2022-12-03T11:45:05.906Z,57.51
2022-12-03T11:47:46.594Z,57.80
2022-12-03T11:50:24.665Z,57.99
2022-12-03T11:53:01.127Z,58.76
2022-12-03T11:55:33.208Z,58.99
2022-12-03T11:58:06.409Z,58.71
2022-12-03T12:00:34.031Z,59.04
2022-12-03T12:03:01.845Z,58.50
2022-12-03T12:05:34.690Z,58.37
2022-12-03T12:08:02.900Z,58.99
2022-12-03T12:10:43.837Z,60.01
2022-12-03T12:13:28.362Z,59.60
2022-12-03T12:16:04.246Z,59.00
2022-12-03T12:18:44.868Z,58.63
2022-12-03T12:21:43.594Z,57.89
2022-12-03T12:24:31.363Z,58.85
2022-12-03T12:27:01.117Z,58.93
2022-12-03T12:29:29.211Z,59.72
2022-12-03T12:32:16.832Z,58.94
2022-12-03T12:34:47.204Z,59.94
2022-12-03T12:37:36.278Z,60.95
2022-12-03T12:40:15.790Z,59.89
2022-12-03T12:42:50.663Z,59.75
2022-12-03T12:45:19.985Z,59.51
2022-12-03T12:47:50.781Z,59.18
2022-12-03T12:50:19.156Z,60.05
2022-12-03T12:52:50.411Z,61.13
2022-12-03T12:55:18.919Z,60.24
2022-12-03T12:57:46.571Z,60.04
2022-12-03T13:00:24.571Z,59.73
2022-12-03T13:02:58.895Z,58.95
2022-12-03T13:05:27.924Z,58.65
2022-12-03T13:07:56.108Z,59.70
2022-12-03T13:10:34.650Z,58.08
2022-12-03T13:13:14.662Z,58.66
2022-12-03T13:15:49.404Z,57.84
2022-12-03T13:18:26.579Z,59.17
2022-12-03T13:20:55.203Z,58.42
2022-12-03T13:23:33.199Z,58.68
2022-12-03T13:26:31.746Z,58.45
2022-12-03T13:29:07.272Z,59.38
2022-12-03T13:31:43.411Z,59.68
2022-12-03T13:34:19.252Z,60.68
2022-12-03T13:36:53.546Z,58.97
2022-12-03T13:39:32.544Z,59.20
2022-12-03T13:42:37.609Z,58.46
2022-12-03T13:45:24.861Z,59.86
2022-12-03T13:47:56.233Z,59.61
2022-12-03T13:50:36.715Z,59.26
2022-12-03T13:53:26.049Z,59.58
2022-12-03T13:55:59.076Z,60.74
2022-12-03T13:58:28.795Z,60.21
2022-12-03T14:00:56.676Z,59.59
2022-12-03T14:03:26.771Z,58.24
2022-12-03T14:05:54.367Z,59.68
2022-12-03T14:08:21.998Z,59.09
2022-12-03T14:10:52.098Z,59.51
2022-12-03T14:13:21.892Z,58.65
2022-12-03T14:15:49.896Z,58.65
2022-12-03T14:18:17.550Z,59.07
2022-12-03T14:20:44.960Z,57.86
2022-12-03T14:23:13.072Z,57.43
2022-12-03T14:25:40.579Z,58.04
2022-12-03T14:28:08.822Z,57.40
2022-12-03T14:30:37.009Z,58.19
2022-12-03T14:33:05.763Z,58.99
2022-12-03T14:35:33.165Z,58.33
2022-12-03T14:38:01.082Z,58.55
2022-12-03T14:40:28.533Z,59.26
2022-12-03T14:42:56.082Z,59.57
2022-12-03T14:45:25.163Z,58.95
2022-12-03T14:47:52.701Z,59.58
2022-12-03T14:50:20.321Z,58.74
2022-12-03T14:52:48.341Z,58.82
2022-12-03T14:55:15.975Z,59.50
2022-12-03T14:57:43.503Z,59.26
2022-12-03T15:00:12.133Z,60.17
2022-12-03T15:02:39.956Z,60.62
2022-12-03T15:05:07.910Z,60.24
2022-12-03T15:07:35.917Z,60.55
2022-12-03T15:10:05.769Z,61.06
2022-12-03T15:12:33.413Z,60.59
2022-12-03T15:15:01.266Z,61.26
2022-12-03T15:17:32.160Z,60.48
2022-12-03T15:19:59.858Z,60.07
2022-12-03T15:22:27.955Z,59.26
2022-12-03T15:24:55.551Z,62.02
2022-12-03T15:27:23.502Z,61.12
2022-12-03T15:29:51.734Z,60.91
2022-12-03T15:32:19.523Z,60.42
2022-12-03T15:34:47.224Z,60.27
2022-12-03T15:37:15.049Z,60.36
2022-12-03T15:39:48.151Z,59.96
2022-12-03T15:42:21.582Z,59.66
2022-12-03T15:44:49.054Z,60.52
2022-12-03T15:47:16.817Z,59.94
2022-12-03T15:49:44.424Z,60.69
2022-12-03T15:52:12.048Z,60.92
2022-12-03T15:54:39.954Z,60.59
2022-12-03T15:57:07.538Z,60.33
2022-12-03T15:59:35.118Z,62.88
2022-12-03T16:02:04.190Z,62.50
2022-12-03T16:04:32.147Z,61.79
2022-12-03T16:06:59.994Z,61.53
2022-12-03T16:09:27.899Z,61.32
2022-12-03T16:11:55.715Z,61.75
2022-12-03T16:14:23.156Z,61.82
2022-12-03T16:16:50.784Z,61.12
2022-12-03T16:19:18.804Z,61.10
2022-12-03T16:21:46.830Z,61.11
2022-12-03T16:24:14.525Z,60.93
2022-12-03T16:26:42.219Z,61.02
2022-12-03T16:29:09.663Z,61.04
2022-12-03T16:31:37.380Z,60.52
2022-12-03T16:34:05.108Z,59.73
2022-12-03T16:36:32.596Z,60.40
2022-12-03T16:39:00.087Z,61.09
2022-12-03T16:41:28.024Z,61.06
2022-12-03T16:43:55.754Z,60.70
2022-12-03T16:46:26.614Z,60.29
2022-12-03T16:48:56.467Z,60.71
2022-12-03T16:51:26.972Z,60.39
2022-12-03T16:53:55.077Z,60.97
2022-12-03T16:56:26.032Z,61.35
2022-12-03T16:58:53.565Z,60.77
2022-12-03T17:01:23.201Z,60.79
2022-12-03T17:03:51.123Z,61.04
2022-12-03T17:06:18.867Z,60.72
2022-12-03T17:08:49.889Z,60.96
2022-12-03T17:11:17.947Z,60.50
2022-12-03T17:13:45.962Z,60.24
2022-12-03T17:16:15.963Z,61.04
2022-12-03T17:18:43.667Z,62.26
2022-12-03T17:21:11.409Z,61.70
2022-12-03T17:23:39.396Z,61.22
2022-12-03T17:26:06.849Z,61.70
2022-12-03T17:28:34.401Z,61.64
2022-12-03T17:31:02.330Z,62.19
2022-12-03T17:33:29.892Z,62.48
2022-12-03T17:35:57.514Z,62.13
2022-12-03T17:38:25.400Z,61.55
2022-12-03T17:40:52.889Z,62.32
2022-12-03T17:43:20.346Z,61.37
2022-12-03T17:45:48.177Z,61.51
2022-12-03T17:48:15.642Z,61.66
2022-12-03T17:50:43.323Z,61.57
2022-12-03T17:53:11.365Z,62.45
2022-12-03T17:55:44.542Z,62.74
2022-12-03T17:58:13.457Z,62.14
2022-12-03T18:00:41.076Z,61.94
2022-12-03T18:03:09.298Z,62.22
2022-12-03T18:05:36.846Z,61.96
2022-12-03T18:08:05.074Z,62.03
2022-12-03T18:10:32.843Z,62.44
2022-12-03T18:13:02.233Z,61.29
2022-12-03T18:15:31.310Z,63.14
2022-12-03T18:17:59.212Z,63.69
2022-12-03T18:20:26.884Z,63.52
2022-12-03T18:22:54.377Z,62.88
2022-12-03T18:25:26.155Z,62.88
2022-12-03T18:27:53.712Z,62.40
2022-12-03T18:30:21.822Z,62.54
2022-12-03T18:32:49.780Z,62.32
2022-12-03T18:35:18.080Z,62.00
2022-12-03T18:37:46.094Z,62.27
2022-12-03T18:40:23.026Z,62.63
2022-12-03T18:42:50.875Z,62.76
2022-12-03T18:45:20.897Z,63.40
2022-12-03T18:47:48.536Z,62.98
2022-12-03T18:50:16.545Z,62.56
2022-12-03T18:52:44.159Z,63.37
2022-12-03T18:55:17.782Z,64.82
2022-12-03T18:57:46.020Z,64.08
2022-12-03T19:00:14.374Z,65.26
2022-12-03T19:05:32.175Z,63.83
2022-12-03T19:07:59.994Z,63.17
2022-12-03T19:10:27.582Z,64.98
2022-12-03T19:12:55.672Z,65.53
2022-12-03T19:15:24.207Z,64.66
2022-12-03T19:17:51.689Z,64.77
2022-12-03T19:20:19.843Z,64.86
2022-12-03T19:22:47.271Z,65.03
2022-12-03T19:25:14.914Z,64.59
2022-12-03T19:27:42.697Z,63.96
2022-12-03T19:30:10.689Z,63.85
2022-12-03T19:32:38.243Z,64.62
2022-12-03T19:35:07.571Z,64.48
2022-12-03T19:37:35.189Z,64.49
2022-12-03T19:40:03.113Z,64.74
2022-12-03T19:42:31.278Z,64.53
2022-12-03T19:44:58.857Z,64.14
2022-12-03T19:47:26.438Z,64.07
2022-12-03T19:49:54.401Z,64.59
2022-12-03T19:52:21.976Z,63.40
2022-12-03T19:54:49.520Z,63.42
2022-12-03T19:57:23.089Z,63.34
2022-12-03T19:59:55.517Z,62.75
2022-12-03T20:02:26.735Z,62.88
2022-12-03T20:04:54.753Z,63.09
2022-12-03T20:07:22.336Z,63.64
2022-12-03T20:09:51.426Z,63.71
2022-12-03T20:12:19.350Z,63.02
2022-12-03T20:14:47.631Z,63.02
2022-12-03T20:17:15.310Z,62.43
2022-12-03T20:19:43.068Z,62.73
2022-12-03T20:22:10.511Z,62.79
2022-12-03T20:24:38.127Z,63.22
2022-12-03T20:27:06.150Z,63.64
2022-12-03T20:29:33.742Z,63.28
2022-12-03T20:32:01.358Z,63.01
2022-12-03T20:34:29.256Z,63.73
2022-12-03T20:36:56.747Z,63.33
2022-12-03T20:39:24.691Z,63.04
2022-12-03T20:41:52.556Z,63.33
2022-12-03T20:44:20.074Z,63.68
2022-12-03T20:46:47.499Z,63.88
2022-12-03T20:49:15.471Z,64.77
2022-12-03T20:51:42.941Z,63.90
2022-12-03T20:54:10.386Z,64.07
2022-12-03T20:56:42.151Z,63.75
2022-12-03T20:59:12.910Z,63.08
2022-12-03T21:01:41.545Z,63.57
2022-12-03T21:04:10.763Z,64.08
2022-12-03T21:06:38.312Z,63.93
2022-12-03T21:09:06.865Z,63.89
2022-12-03T21:11:35.927Z,64.78
2022-12-03T21:14:04.244Z,63.90
2022-12-03T21:17:05.928Z,63.62
2022-12-03T21:19:22.780Z,65.50
2022-12-03T21:21:50.895Z,65.44
2022-12-03T21:24:18.399Z,64.43
2022-12-03T21:26:46.036Z,64.39
2022-12-03T21:29:13.911Z,63.32
2022-12-03T21:31:41.280Z,64.50
2022-12-03T21:34:09.000Z,64.51
2022-12-03T21:36:37.088Z,63.67
2022-12-03T21:39:05.413Z,63.62
2022-12-03T21:41:35.204Z,63.44
2022-12-03T21:44:03.757Z,64.02
2022-12-03T21:47:10.838Z,64.77
2022-12-03T21:49:20.458Z,64.50
2022-12-03T21:51:48.590Z,66.21
2022-12-03T21:54:16.232Z,64.72
2022-12-03T21:56:43.916Z,64.12
2022-12-03T21:59:11.616Z,64.74
2022-12-03T22:01:44.001Z,64.28
2022-12-03T22:04:14.561Z,65.07
2022-12-03T22:06:42.134Z,64.77
2022-12-03T22:09:09.633Z,65.83
2022-12-03T22:11:37.624Z,64.42
2022-12-03T22:14:09.126Z,65.53
2022-12-03T22:16:37.024Z,65.01
2022-12-03T22:19:04.545Z,64.59
2022-12-03T22:21:32.109Z,64.96
2022-12-03T22:24:00.220Z,63.69
2022-12-03T22:26:27.787Z,64.11
2022-12-03T22:28:55.582Z,65.52
2022-12-03T22:31:23.397Z,64.74
2022-12-03T22:33:51.020Z,64.35
2022-12-03T22:36:21.647Z,64.35
2022-12-03T22:38:51.156Z,64.36
2022-12-03T22:41:19.120Z,64.90
2022-12-03T22:43:47.545Z,65.30
2022-12-03T22:46:16.578Z,65.41
2022-12-03T22:48:46.116Z,64.54
2022-12-03T22:51:20.216Z,64.64
2022-12-03T22:53:48.592Z,64.59
2022-12-03T22:56:17.278Z,65.06
2022-12-03T22:58:44.880Z,65.17
2022-12-03T23:01:21.981Z,66.18
2022-12-03T23:03:49.991Z,64.38
2022-12-03T23:06:18.664Z,64.93
2022-12-03T23:08:46.466Z,64.28
2022-12-03T23:11:15.520Z,64.64
2022-12-03T23:13:43.597Z,64.49
2022-12-03T23:16:16.180Z,64.15
2022-12-03T23:18:44.285Z,65.06
2022-12-03T23:21:25.415Z,66.29
2022-12-03T23:23:56.744Z,65.90
2022-12-03T23:26:24.513Z,67.16
2022-12-03T23:28:52.024Z,65.39
2022-12-03T23:31:23.515Z,65.35
2022-12-03T23:33:51.915Z,64.77
2022-12-03T23:36:20.747Z,65.59
2022-12-03T23:38:48.228Z,65.26
2022-12-03T23:41:18.401Z,64.13
2022-12-03T23:43:46.251Z,64.90
2022-12-03T23:46:16.575Z,64.10
2022-12-03T23:48:44.457Z,64.95
2022-12-03T23:51:14.703Z,64.90
2022-12-03T23:53:42.437Z,64.68
2022-12-03T23:56:15.697Z,64.36
2022-12-03T23:58:44.371Z,64.99
